Time;durP1;ratioP1;P1;durP2;ratioP2;P2;SDS_P1;SDS_P2;PMS_P1;PMS_P2;Temp;Humidity;BMP_temperature;BMP_pressure;BME280_temperature;BME280_humidity;BME280_pressure;Samples;Min_cycle;Max_cycle;Signal;HPM_P1;HPM_P2
2022/02/18 00:00:50;;;;;;;;;;;;;;;14.25;57.76;100645.63;1018170;29;762;-65
2022/02/18 00:01:40;;;;;;;;;;;;;;;14.24;58.00;100644.78;1018014;29;1236;-65
2022/02/18 00:02:30;;;;;;;;;;;;;;;14.25;57.59;100659.03;1019317;29;1672;-66
2022/02/18 00:03:21;;;;;;;;;;;;;;;14.24;57.62;100650.13;1022200;29;736;-65
2022/02/18 00:04:11;;;;;;;;;;;;;;;14.25;58.15;100651.00;1022223;29;686;-66
2022/02/18 00:05:02;;;;;;;;;;;;;;;14.25;57.80;100653.66;1022154;29;718;-66
2022/02/18 00:05:52;;;;;;;;;;;;;;;14.25;58.20;100653.66;1022197;29;898;-65
2022/02/18 00:06:42;;;;;;;;;;;;;;;14.24;58.24;100652.81;1022186;29;710;-65
2022/02/18 00:07:33;;;;;;;;;;;;;;;14.24;58.10;100652.81;1022164;29;838;-64
2022/02/18 00:08:23;;;;;;;;;;;;;;;14.25;58.30;100654.53;1022183;29;747;-65
2022/02/18 00:09:14;;;;;;;;;;;;;;;14.24;57.57;100650.13;1022083;29;952;-64
2022/02/18 00:10:05;;;;;;;;;;;;;;;14.24;58.08;100655.50;1022048;29;791;-64
2022/02/18 00:10:55;;;;;;;;;;;;;;;14.25;58.33;100657.19;1022185;29;967;-65
2022/02/18 00:11:45;;;;;;;;;;;;;;;14.25;57.53;100659.03;1022045;29;829;-65
2022/02/18 00:12:36;;;;;;;;;;;;;;;14.25;58.33;100665.25;1022066;29;1914;-64
2022/02/18 00:13:27;;;;;;;;;;;;;;;14.24;57.58;100654.66;1018756;29;776;-67
2022/02/18 00:14:17;;;;;;;;;;;;;;;14.24;58.44;100660.00;1018746;29;699;-65
2022/02/18 00:15:08;;;;;;;;;;;;;;;14.24;58.24;100657.31;1019263;28;806;-65
2022/02/18 00:15:58;;;;;;;;;;;;;;;14.23;58.26;100648.44;1019368;28;926;-64
2022/02/18 00:16:48;;;;;;;;;;;;;;;14.23;57.66;100651.13;1022529;28;1756;-64
2022/02/18 00:17:39;;;;;;;;;;;;;;;14.23;58.18;100653.78;1022123;29;810;-64
2022/02/18 00:18:29;;;;;;;;;;;;;;;14.23;58.32;100653.78;1020325;29;1531;-65
2022/02/18 00:19:20;;;;;;;;;;;;;;;14.23;58.01;100652.94;1022160;29;792;-65
2022/02/18 00:20:10;;;;;;;;;;;;;;;14.24;57.93;100654.66;1019095;29;1714;-65
2022/02/18 00:21:02;;;;;;;;;;;;;;;14.23;58.10;100655.63;1018205;29;742;-64
2022/02/18 00:21:52;;;;;;;;;;;;;;;14.24;57.74;100652.81;1018668;29;676;-64
2022/02/18 00:22:43;;;;;;;;;;;;;;;14.23;58.41;100650.25;1018173;29;766;-64
2022/02/18 00:23:33;;;;;;;;;;;;;;;14.25;57.77;100651.00;1018119;29;678;-64
2022/02/18 00:24:24;;;;;;;;;;;;;;;14.23;58.20;100651.13;1018143;29;735;-64
2022/02/18 00:25:14;;;;;;;;;;;;;;;14.22;57.70;100641.38;1019211;29;1520;-66
2022/02/18 00:26:04;;;;;;;;;;;;;;;14.22;57.99;100641.38;1018115;29;887;-65
2022/02/18 00:26:55;;;;;;;;;;;;;;;14.22;58.63;100638.69;1018175;29;730;-65
2022/02/18 00:27:45;;;;;;;;;;;;;;;14.22;58.39;100630.66;1017508;29;812;-65
2022/02/18 00:28:36;;;;;;;;;;;;;;;14.21;57.63;100634.31;1017518;29;797;-65
2022/02/18 00:29:26;;;;;;;;;;;;;;;14.22;58.64;100635.16;1017527;29;745;-66
2022/02/18 00:30:17;;;;;;;;;;;;;;;14.21;57.84;100631.63;1018692;29;1700;-65
2022/02/18 00:31:07;;;;;;;;;;;;;;;14.22;58.32;100629.78;1022010;29;729;-67
2022/02/18 00:31:57;;;;;;;;;;;;;;;14.22;57.87;100627.13;1022088;29;706;-69
2022/02/18 00:32:48;;;;;;;;;;;;;;;14.22;58.10;100627.97;1022027;29;760;-68
2022/02/18 00:33:38;;;;;;;;;;;;;;;14.22;57.95;100627.97;1018645;29;784;-69
2022/02/18 00:34:29;;;;;;;;;;;;;;;14.22;58.47;100625.28;1019307;28;809;-69
2022/02/18 00:35:19;;;;;;;;;;;;;;;14.23;58.72;100636.84;1019299;29;796;-67
2022/02/18 00:36:10;;;;;;;;;;;;;;;14.22;58.07;100636.00;1018778;29;738;-68
2022/02/18 00:37:00;;;;;;;;;;;;;;;14.23;58.89;100636.84;1019194;28;917;-69
2022/02/18 00:37:52;;;;;;;;;;;;;;;14.23;58.79;100637.72;1019316;28;701;-68
2022/02/18 00:38:42;;;;;;;;;;;;;;;14.24;58.71;100636.72;1018741;29;790;-67
2022/02/18 00:39:33;;;;;;;;;;;;;;;14.23;58.57;100631.50;1019288;28;773;-68
2022/02/18 00:40:24;;;;;;;;;;;;;;;14.24;58.33;100627.84;1021395;28;1806;-68
2022/02/18 00:41:15;;;;;;;;;;;;;;;14.24;58.94;100631.38;1022301;29;1616;-66
2022/02/18 00:42:06;;;;;;;;;;;;;;;14.22;57.78;100630.66;1017309;29;716;-67
2022/02/18 00:42:56;;;;;;;;;;;;;;;14.23;58.74;100629.66;1017374;29;1499;-67
2022/02/18 00:43:46;;;;;;;;;;;;;;;14.23;58.86;100627.00;1021274;29;1707;-67
2022/02/18 00:44:37;;;;;;;;;;;;;;;14.23;57.93;100627.00;1018051;29;702;-67
2022/02/18 00:45:28;;;;;;;;;;;;;;;14.23;58.87;100631.50;1017932;29;939;-68
2022/02/18 00:46:18;;;;;;;;;;;;;;;14.23;58.25;100629.66;1014452;29;706;-67
2022/02/18 00:47:09;;;;;;;;;;;;;;;14.22;58.48;100630.66;1017107;29;1734;-67
2022/02/18 00:48:00;;;;;;;;;;;;;;;14.22;58.29;100627.13;1021978;29;931;-67
2022/02/18 00:48:50;;;;;;;;;;;;;;;14.22;58.93;100624.44;1021938;29;792;-67
2022/02/18 00:49:41;;;;;;;;;;;;;;;14.22;58.19;100630.66;1018031;29;817;-67
2022/02/18 00:50:31;;;;;;;;;;;;;;;14.21;58.62;100620.91;1017553;29;685;-66
2022/02/18 00:51:22;;;;;;;;;;;;;;;14.21;58.27;100634.31;1017539;29;858;-66
2022/02/18 00:52:12;;;;;;;;;;;;;;;14.21;58.15;100622.72;1017581;29;1071;-67
2022/02/18 00:53:02;;;;;;;;;;;;;;;14.21;58.32;100628.09;1018023;29;712;-67
2022/02/18 00:53:53;;;;;;;;;;;;;;;14.22;59.05;100625.28;1017426;29;1415;-67
2022/02/18 00:54:43;;;;;;;;;;;;;;;14.22;58.82;100624.44;1017490;29;782;-66
2022/02/18 00:55:34;;;;;;;;;;;;;;;14.22;58.60;100619.06;1017536;29;841;-67
2022/02/18 00:56:24;;;;;;;;;;;;;;;14.22;58.48;100619.06;1017500;29;728;-66
2022/02/18 00:57:16;;;;;;;;;;;;;;;14.20;58.29;100610.31;1017510;29;687;-66
2022/02/18 00:58:06;;;;;;;;;;;;;;;14.21;58.73;100620.91;1016941;29;731;-67
2022/02/18 00:59:00;;;;;;;;;;;;;;;14.20;58.28;100619.19;1017548;29;776;-66
2022/02/18 00:59:50;;;;;;;;;;;;;;;14.21;58.33;100617.38;1016858;29;793;-66
2022/02/18 01:00:40;;;;;;;;;;;;;;;14.20;58.42;100619.19;1017461;29;749;-67
2022/02/18 01:01:31;;;;;;;;;;;;;;;14.21;58.45;100622.72;1013747;29;735;-67
2022/02/18 01:02:21;;;;;;;;;;;;;;;14.20;58.52;100611.16;1013829;29;779;-68
2022/02/18 01:03:12;;;;;;;;;;;;;;;14.21;58.82;100618.22;1017289;29;846;-66
2022/02/18 01:04:02;;;;;;;;;;;;;;;14.20;58.78;100611.16;1017300;29;771;-66
2022/02/18 01:04:52;;;;;;;;;;;;;;;14.21;58.38;100617.38;1017655;29;1667;-67
2022/02/18 01:05:43;;;;;;;;;;;;;;;14.20;58.96;100616.53;1019083;29;1853;-66
2022/02/18 01:06:34;;;;;;;;;;;;;;;14.20;58.32;100621.03;1017601;29;768;-66
2022/02/18 01:07:25;;;;;;;;;;;;;;;14.19;58.34;100609.47;1018499;29;1909;-66
2022/02/18 01:08:16;;;;;;;;;;;;;;;14.19;58.85;100614.81;1018460;29;847;-66
2022/02/18 01:09:06;;;;;;;;;;;;;;;14.19;58.96;100609.47;1014913;29;1021;-66
2022/02/18 01:09:56;;;;;;;;;;;;;;;14.18;58.50;100610.44;1013801;29;733;-66
2022/02/18 01:10:47;;;;;;;;;;;;;;;14.19;58.43;100601.41;1018017;29;757;-67
2022/02/18 01:11:37;;;;;;;;;;;;;;;14.20;58.57;100610.31;1018000;29;720;-67
2022/02/18 01:12:28;;;;;;;;;;;;;;;14.19;58.47;100601.41;1018666;29;1911;-66
2022/02/18 01:13:18;;;;;;;;;;;;;;;14.19;59.04;100600.56;1018163;29;1872;-66
2022/02/18 01:14:09;;;;;;;;;;;;;;;14.19;58.69;100601.41;1021710;29;1828;-67
2022/02/18 01:14:59;;;;;;;;;;;;;;;14.19;58.65;100601.41;1021885;29;709;-67
2022/02/18 01:15:49;;;;;;;;;;;;;;;14.18;58.78;100597.03;1021903;29;786;-66
2022/02/18 01:16:40;;;;;;;;;;;;;;;14.19;58.46;100603.25;1021822;29;722;-66
2022/02/18 01:17:30;;;;;;;;;;;;;;;14.18;58.90;100597.03;1021846;29;707;-65
2022/02/18 01:18:21;;;;;;;;;;;;;;;14.19;58.99;100596.06;1021907;29;704;-66
2022/02/18 01:19:11;;;;;;;;;;;;;;;14.19;58.34;100596.06;1021738;29;1338;-65
2022/02/18 01:20:02;;;;;;;;;;;;;;;14.18;58.94;100586.31;1020913;29;692;-66
2022/02/18 01:20:52;;;;;;;;;;;;;;;14.20;58.78;100595.06;1018420;29;838;-65
2022/02/18 01:21:43;;;;;;;;;;;;;;;14.18;59.01;100591.69;1019098;28;701;-65
2022/02/18 01:22:33;;;;;;;;;;;;;;;14.19;58.57;100592.53;1019169;29;959;-65
2022/02/18 01:23:23;;;;;;;;;;;;;;;14.19;58.64;100587.16;1017317;29;711;-64
2022/02/18 01:24:14;;;;;;;;;;;;;;;14.19;58.41;100589.84;1012659;29;945;-64
2022/02/18 01:25:04;;;;;;;;;;;;;;;14.19;58.45;100590.69;1015201;29;1492;-65
2022/02/18 01:25:55;;;;;;;;;;;;;;;14.19;58.54;100592.53;1014223;29;721;-65
2022/02/18 01:26:45;;;;;;;;;;;;;;;14.19;59.14;100593.38;1013632;29;857;-64
2022/02/18 01:27:36;;;;;;;;;;;;;;;14.18;59.14;100586.31;1017417;29;779;-65
2022/02/18 01:28:26;;;;;;;;;;;;;;;14.18;59.29;100591.69;1017853;29;688;-64
2022/02/18 01:29:16;;;;;;;;;;;;;;;14.17;59.02;100587.28;1017802;29;940;-65
2022/02/18 01:30:07;;;;;;;;;;;;;;;14.18;58.35;100586.31;1017884;29;1751;-64
2022/02/18 01:30:57;;;;;;;;;;;;;;;14.18;58.66;100589.00;1017890;29;795;-65
2022/02/18 01:31:48;;;;;;;;;;;;;;;14.19;59.04;100585.34;1017879;29;807;-65
2022/02/18 01:32:38;;;;;;;;;;;;;;;14.18;58.70;100580.97;1018053;29;1964;-69
2022/02/18 01:33:28;;;;;;;;;;;;;;;14.19;59.28;100579.13;1018186;29;1710;-69
2022/02/18 01:34:19;;;;;;;;;;;;;;;14.18;59.09;100580.97;1020119;29;1734;-69
2022/02/18 01:35:10;;;;;;;;;;;;;;;14.20;59.00;100586.19;1016276;28;1697;-69
2022/02/18 01:36:00;;;;;;;;;;;;;;;14.18;58.77;100574.75;1014540;29;1556;-69
2022/02/18 01:36:51;;;;;;;;;;;;;;;14.18;58.63;100580.09;1016550;29;1484;-69
2022/02/18 01:37:41;;;;;;;;;;;;;;;14.17;58.77;100579.25;1021278;29;760;-70
2022/02/18 01:38:32;;;;;;;;;;;;;;;14.18;58.91;100582.78;1019247;29;1553;-69
2022/02/18 01:39:22;;;;;;;;;;;;;;;14.17;58.95;100581.94;1021134;29;1687;-69
2022/02/18 01:40:14;;;;;;;;;;;;;;;14.17;58.96;100578.41;1017744;29;709;-69
2022/02/18 01:41:04;;;;;;;;;;;;;;;14.17;59.29;100584.63;1021490;29;1871;-68
2022/02/18 01:41:55;;;;;;;;;;;;;;;14.17;59.24;100573.91;1021617;29;1636;-69
2022/02/18 01:42:45;;;;;;;;;;;;;;;14.18;58.51;100575.59;1017802;29;755;-69
2022/02/18 01:43:37;;;;;;;;;;;;;;;14.17;58.86;100575.72;1017203;29;767;-69
2022/02/18 01:44:27;;;;;;;;;;;;;;;14.17;58.92;100576.56;1017372;29;705;-69
2022/02/18 01:45:18;;;;;;;;;;;;;;;14.17;59.28;100578.41;1017447;29;714;-69
2022/02/18 01:46:09;;;;;;;;;;;;;;;14.17;59.47;100579.25;1021139;29;1724;-68
2022/02/18 01:46:59;;;;;;;;;;;;;;;14.15;59.42;100570.50;1021697;29;714;-69
2022/02/18 01:47:50;;;;;;;;;;;;;;;14.16;59.26;100576.69;1021659;29;697;-68
2022/02/18 01:48:40;;;;;;;;;;;;;;;14.15;59.41;100575.84;1021587;29;1917;-69
2022/02/18 01:49:31;;;;;;;;;;;;;;;14.17;59.35;100575.72;1018865;29;1885;-68
2022/02/18 01:50:21;;;;;;;;;;;;;;;14.17;59.00;100573.03;1021463;29;1935;-68
2022/02/18 01:51:11;;;;;;;;;;;;;;;14.17;59.44;100575.72;1021822;29;668;-69
2022/02/18 01:52:02;;;;;;;;;;;;;;;14.18;59.57;100570.25;1021695;29;744;-69
2022/02/18 01:52:52;;;;;;;;;;;;;;;14.16;59.45;100563.31;1021649;29;817;-70
2022/02/18 01:53:43;;;;;;;;;;;;;;;14.16;58.87;100560.63;1021751;29;696;-71
2022/02/18 01:54:33;;;;;;;;;;;;;;;14.15;58.79;100554.41;1021665;29;699;-70
2022/02/18 01:55:24;;;;;;;;;;;;;;;14.14;59.23;100550.06;1021494;29;1629;-70
2022/02/18 01:56:14;;;;;;;;;;;;;;;14.14;59.17;100552.75;1021716;29;829;-70
2022/02/18 01:57:05;;;;;;;;;;;;;;;14.15;58.92;100550.91;1021770;29;698;-68
2022/02/18 01:57:55;;;;;;;;;;;;;;;14.14;58.98;100551.88;1021692;29;755;-67
2022/02/18 01:58:46;;;;;;;;;;;;;;;14.15;59.12;100548.22;1021678;29;784;-67
2022/02/18 01:59:36;;;;;;;;;;;;;;;14.13;59.59;100539.47;1021793;29;754;-67
2022/02/18 02:00:27;;;;;;;;;;;;;;;14.13;58.85;100551.03;1016862;29;1837;-66
2022/02/18 02:01:17;;;;;;;;;;;;;;;14.12;59.23;100538.63;1015730;29;776;-68
2022/02/18 02:02:07;;;;;;;;;;;;;;;14.14;59.19;100536.66;1019478;29;703;-68
2022/02/18 02:02:58;;;;;;;;;;;;;;;14.14;58.80;100533.97;1021726;29;701;-68
2022/02/18 02:03:48;;;;;;;;;;;;;;;14.13;59.59;100529.59;1021774;29;656;-68
2022/02/18 02:04:39;;;;;;;;;;;;;;;14.14;59.25;100525.94;1021672;29;832;-66
2022/02/18 02:05:29;;;;;;;;;;;;;;;14.14;58.99;100525.09;1021314;29;1691;-66
2022/02/18 02:06:19;;;;;;;;;;;;;;;14.14;59.45;100525.09;1021697;29;782;-66
2022/02/18 02:07:10;;;;;;;;;;;;;;;14.15;59.09;100521.44;1017808;29;788;-67
2022/02/18 02:08:00;;;;;;;;;;;;;;;14.14;59.14;100520.59;1017139;29;789;-67
2022/02/18 02:08:51;;;;;;;;;;;;;;;14.14;59.39;100511.69;1017190;29;724;-67
2022/02/18 02:09:41;;;;;;;;;;;;;;;14.14;58.89;100512.53;1020501;29;1816;-66
2022/02/18 02:10:32;;;;;;;;;;;;;;;14.14;59.49;100515.22;1022119;29;893;-67
2022/02/18 02:11:22;;;;;;;;;;;;;;;14.13;59.34;100505.47;1021687;29;687;-67
2022/02/18 02:12:13;;;;;;;;;;;;;;;14.13;59.24;100508.16;1021605;29;803;-68
2022/02/18 02:13:03;;;;;;;;;;;;;;;14.12;58.67;100501.09;1021579;29;928;-65
2022/02/18 02:13:54;;;;;;;;;;;;;;;14.12;59.01;100501.09;1021703;29;698;-65
2022/02/18 02:14:44;;;;;;;;;;;;;;;14.12;59.44;100498.41;1020340;29;1370;-65
2022/02/18 02:15:35;;;;;;;;;;;;;;;14.12;59.45;100485.03;1017698;29;746;-65
2022/02/18 02:16:25;;;;;;;;;;;;;;;14.12;59.74;100479.66;1017679;29;753;-65
2022/02/18 02:17:16;;;;;;;;;;;;;;;14.12;59.22;100482.34;1017666;29;913;-65
2022/02/18 02:18:06;;;;;;;;;;;;;;;14.11;59.38;100461.03;1017590;29;768;-66
2022/02/18 02:18:56;;;;;;;;;;;;;;;14.12;59.25;100468.09;1017683;29;1918;-65
2022/02/18 02:19:48;;;;;;;;;;;;;;;14.11;58.85;100463.72;1017706;29;698;-66
2022/02/18 02:20:39;;;;;;;;;;;;;;;14.12;58.79;100462.75;1019238;29;1758;-66
2022/02/18 02:21:29;;;;;;;;;;;;;;;14.11;58.76;100450.31;1021666;29;697;-65
2022/02/18 02:22:20;;;;;;;;;;;;;;;14.11;59.62;100450.31;1021750;29;705;-66
2022/02/18 02:23:10;;;;;;;;;;;;;;;14.11;59.57;100448.50;1021573;29;818;-65
2022/02/18 02:24:01;;;;;;;;;;;;;;;14.12;59.12;100442.16;1021472;29;1064;-65
2022/02/18 02:24:51;;;;;;;;;;;;;;;14.11;59.00;100437.78;1021562;29;651;-65
2022/02/18 02:25:41;;;;;;;;;;;;;;;14.10;59.25;100436.06;1017704;29;830;-65
2022/02/18 02:26:32;;;;;;;;;;;;;;;14.10;59.09;100438.75;1017205;29;682;-65
2022/02/18 02:27:22;;;;;;;;;;;;;;;14.10;59.82;100436.06;1017605;29;721;-65
2022/02/18 02:28:13;;;;;;;;;;;;;;;14.10;59.12;100438.75;1017283;29;701;-65
2022/02/18 02:29:04;;;;;;;;;;;;;;;14.11;59.56;100434.25;1017712;29;704;-71
2022/02/18 02:29:55;;;;;;;;;;;;;;;14.12;59.67;100435.94;1017097;29;1255;-75
2022/02/18 02:30:45;;;;;;;;;;;;;;;14.12;59.15;100430.59;1018172;29;776;-75
2022/02/18 02:31:35;;;;;;;;;;;;;;;14.11;58.93;100440.44;1017626;29;793;-70
2022/02/18 02:32:26;;;;;;;;;;;;;;;14.11;59.66;100434.25;1017711;29;1911;-69
2022/02/18 02:33:16;;;;;;;;;;;;;;;14.10;59.66;100430.72;1017812;29;714;-70
2022/02/18 02:34:07;;;;;;;;;;;;;;;14.11;59.25;100437.78;1017562;29;760;-71
2022/02/18 02:34:57;;;;;;;;;;;;;;;14.10;59.50;100436.06;1017723;29;735;-71
2022/02/18 02:35:47;;;;;;;;;;;;;;;14.11;59.23;100439.59;1019043;29;1467;-69
2022/02/18 02:36:38;;;;;;;;;;;;;;;14.11;59.16;100434.25;1017816;29;1528;-68
2022/02/18 02:37:28;;;;;;;;;;;;;;;14.11;59.33;100431.56;1021504;29;773;-68
2022/02/18 02:38:19;;;;;;;;;;;;;;;14.11;59.46;100434.25;1017486;29;778;-68
2022/02/18 02:39:10;;;;;;;;;;;;;;;14.11;59.38;100434.25;1012341;29;1047;-68
2022/02/18 02:40:00;;;;;;;;;;;;;;;14.10;59.92;100433.38;1015913;29;1740;-67
2022/02/18 02:40:51;;;;;;;;;;;;;;;14.10;59.72;100422.69;1013443;29;1613;-68
2022/02/18 02:41:41;;;;;;;;;;;;;;;14.10;59.24;100421.81;1015076;29;1435;-68
2022/02/18 02:42:31;;;;;;;;;;;;;;;14.10;59.51;100419.16;1020792;29;1415;-66
2022/02/18 02:43:22;;;;;;;;;;;;;;;14.10;59.06;100425.34;1018740;29;1512;-68
2022/02/18 02:44:12;;;;;;;;;;;;;;;14.10;59.71;100420.00;1019262;29;1476;-68
2022/02/18 02:45:03;;;;;;;;;;;;;;;14.11;60.00;100419.00;1016538;29;1406;-66
2022/02/18 02:45:53;;;;;;;;;;;;;;;14.11;59.07;100413.66;1019069;29;1382;-67
2022/02/18 02:46:44;;;;;;;;;;;;;;;14.10;59.68;100414.63;1018290;29;1310;-69
2022/02/18 02:47:34;;;;;;;;;;;;;;;14.09;59.18;100404.91;1015490;29;1541;-68
2022/02/18 02:48:24;;;;;;;;;;;;;;;14.09;59.07;100407.56;1020916;29;1483;-69
2022/02/18 02:49:15;;;;;;;;;;;;;;;14.11;59.33;100410.13;1021306;29;1483;-65
2022/02/18 02:50:05;;;;;;;;;;;;;;;14.11;59.07;100408.28;1020260;29;1477;-65
2022/02/18 02:50:56;;;;;;;;;;;;;;;14.10;59.93;100411.94;1019135;29;1580;-66
2022/02/18 02:51:46;;;;;;;;;;;;;;;14.10;59.27;100397.72;1020472;29;1565;-65
2022/02/18 02:52:37;;;;;;;;;;;;;;;14.10;59.89;100398.56;1019222;29;1891;-66
2022/02/18 02:53:27;;;;;;;;;;;;;;;14.10;59.30;100403.06;1020635;29;1495;-65
2022/02/18 02:54:17;;;;;;;;;;;;;;;14.10;59.38;100403.06;1019278;29;1384;-65
2022/02/18 02:55:10;;;;;;;;;;;;;;;14.10;59.29;100395.03;1020530;29;1497;-65
2022/02/18 02:56:01;;;;;;;;;;;;;;;14.09;59.46;100394.19;1020532;29;1424;-65
2022/02/18 02:56:56;;;;;;;;;;;;;;;14.09;59.65;100388.81;1019878;29;1384;-65
2022/02/18 02:57:47;;;;;;;;;;;;;;;14.09;59.43;100388.81;1017321;29;1336;-66
2022/02/18 02:58:37;;;;;;;;;;;;;;;14.08;59.69;100387.13;1020156;29;1405;-66
2022/02/18 02:59:29;;;;;;;;;;;;;;;14.08;59.94;100378.22;1021635;29;702;-66
2022/02/18 03:00:19;;;;;;;;;;;;;;;14.08;59.52;100376.41;1018619;29;700;-67
2022/02/18 03:01:10;;;;;;;;;;;;;;;14.09;59.95;100377.25;1018597;29;780;-66
2022/02/18 03:02:00;;;;;;;;;;;;;;;14.08;59.52;100371.03;1017068;29;699;-66
2022/02/18 03:02:50;;;;;;;;;;;;;;;14.08;59.66;100371.03;1016865;29;749;-68
2022/02/18 03:03:41;;;;;;;;;;;;;;;14.08;59.94;100368.38;1013485;29;799;-69
2022/02/18 03:04:32;;;;;;;;;;;;;;;14.08;59.92;100370.19;1017297;29;785;-68
2022/02/18 03:05:23;;;;;;;;;;;;;;;14.08;59.36;100365.69;1015803;29;1928;-68
2022/02/18 03:06:13;;;;;;;;;;;;;;;14.09;60.03;100361.19;1012833;29;739;-68
2022/02/18 03:07:04;;;;;;;;;;;;;;;14.09;60.17;100362.03;1016547;29;863;-68
2022/02/18 03:07:55;;;;;;;;;;;;;;;14.08;59.29;100354.97;1020877;29;827;-68
2022/02/18 03:08:45;;;;;;;;;;;;;;;14.09;59.15;100356.66;1021249;29;1782;-64
2022/02/18 03:09:36;;;;;;;;;;;;;;;14.08;59.36;100356.81;1019806;29;1417;-65
2022/02/18 03:10:26;;;;;;;;;;;;;;;14.08;59.76;100354.97;1021169;29;1598;-65
2022/02/18 03:11:16;;;;;;;;;;;;;;;14.07;59.49;100361.31;1019938;29;1391;-65
2022/02/18 03:12:07;;;;;;;;;;;;;;;14.07;59.90;100358.63;1021069;29;1503;-66
2022/02/18 03:12:57;;;;;;;;;;;;;;;14.08;60.02;100362.16;1019945;29;1419;-66
2022/02/18 03:13:48;;;;;;;;;;;;;;;14.08;59.69;100363.00;1021241;29;1561;-65
2022/02/18 03:14:39;;;;;;;;;;;;;;;14.08;59.26;100365.69;1019444;29;1453;-66
2022/02/18 03:15:29;;;;;;;;;;;;;;;14.07;59.99;100358.63;1021272;29;1588;-68
2022/02/18 03:16:19;;;;;;;;;;;;;;;14.08;59.29;100368.38;1021578;29;791;-67
2022/02/18 03:17:10;;;;;;;;;;;;;;;14.08;59.74;100352.28;1018708;29;1404;-66
2022/02/18 03:18:00;;;;;;;;;;;;;;;14.08;59.98;100351.44;1020811;29;1698;-66
2022/02/18 03:18:51;;;;;;;;;;;;;;;14.08;59.91;100348.75;1021193;29;1639;-65
2022/02/18 03:19:41;;;;;;;;;;;;;;;14.08;59.90;100343.41;1020091;29;1386;-66
2022/02/18 03:20:31;;;;;;;;;;;;;;;14.08;59.94;100344.25;1020765;29;1335;-65
2022/02/18 03:21:22;;;;;;;;;;;;;;;14.08;59.44;100335.38;1020322;29;1423;-66
2022/02/18 03:22:12;;;;;;;;;;;;;;;14.07;60.24;100339.88;1019196;29;1720;-65
2022/02/18 03:23:03;;;;;;;;;;;;;;;14.07;59.83;100329.16;1020386;29;1564;-66
2022/02/18 03:23:53;;;;;;;;;;;;;;;14.06;60.27;100330.13;1018949;29;1467;-67
2022/02/18 03:24:44;;;;;;;;;;;;;;;14.08;60.12;100332.69;1017918;29;1470;-66
2022/02/18 03:25:34;;;;;;;;;;;;;;;14.06;59.70;100330.13;1019309;29;1624;-66
2022/02/18 03:26:24;;;;;;;;;;;;;;;14.08;59.73;100327.31;1020543;29;1499;-68
2022/02/18 03:27:15;;;;;;;;;;;;;;;14.07;59.84;100330.97;1019415;29;1404;-68
2022/02/18 03:28:05;;;;;;;;;;;;;;;14.07;60.19;100323.78;1020574;29;1479;-69
2022/02/18 03:28:56;;;;;;;;;;;;;;;14.06;60.11;100327.47;1019463;29;1514;-68
2022/02/18 03:29:46;;;;;;;;;;;;;;;14.06;60.11;100324.78;1020796;29;1481;-68
2022/02/18 03:30:36;;;;;;;;;;;;;;;14.06;59.32;100323.94;1020733;29;1504;-68
2022/02/18 03:31:27;;;;;;;;;;;;;;;14.05;59.53;100325.75;1021613;29;1578;-67
2022/02/18 03:32:17;;;;;;;;;;;;;;;14.06;60.13;100319.41;1020415;29;1428;-69
2022/02/18 03:33:11;;;;;;;;;;;;;;;14.06;59.91;100324.78;1021519;29;1513;-69
2022/02/18 03:34:01;;;;;;;;;;;;;;;14.05;59.36;100328.44;1020314;29;1504;-68
2022/02/18 03:34:51;;;;;;;;;;;;;;;14.04;59.77;100324.06;1019680;29;1393;-69
2022/02/18 03:35:42;;;;;;;;;;;;;;;14.05;59.31;100327.59;1020971;29;1216;-68
2022/02/18 03:36:32;;;;;;;;;;;;;;;14.06;59.82;100329.28;1019744;29;1454;-68
2022/02/18 03:37:23;;;;;;;;;;;;;;;14.06;59.89;100327.47;1021105;29;1625;-68
2022/02/18 03:38:13;;;;;;;;;;;;;;;14.06;59.94;100319.41;1019858;29;1355;-69
2022/02/18 03:39:04;;;;;;;;;;;;;;;14.05;60.19;100315.03;1021408;29;1485;-69
2022/02/18 03:39:54;;;;;;;;;;;;;;;14.05;59.43;100312.38;1020073;29;1391;-69
2022/02/18 03:40:46;;;;;;;;;;;;;;;14.06;60.15;100313.22;1021365;29;1371;-69
2022/02/18 03:41:36;;;;;;;;;;;;;;;14.05;59.47;100312.38;1021544;29;1368;-69
2022/02/18 03:42:27;;;;;;;;;;;;;;;14.04;59.91;100307.97;1021549;29;1607;-67
2022/02/18 03:43:17;;;;;;;;;;;;;;;14.04;60.06;100297.28;1020463;29;1383;-66
2022/02/18 03:44:08;;;;;;;;;;;;;;;14.04;59.43;100302.63;1021734;29;1571;-67
2022/02/18 03:44:58;;;;;;;;;;;;;;;14.05;59.29;100306.16;1020410;29;1449;-66
2022/02/18 03:45:49;;;;;;;;;;;;;;;14.03;59.84;100303.59;1021874;29;1569;-65
2022/02/18 03:46:39;;;;;;;;;;;;;;;14.03;59.44;100295.56;1020618;29;1456;-65
2022/02/18 03:47:30;;;;;;;;;;;;;;;14.03;59.33;100295.56;1021543;29;1469;-65
2022/02/18 03:48:20;;;;;;;;;;;;;;;14.02;59.42;100275.13;1020635;29;1471;-65
2022/02/18 03:49:11;;;;;;;;;;;;;;;14.03;60.26;100275.97;1019400;29;1386;-65
2022/02/18 03:50:01;;;;;;;;;;;;;;;14.03;60.06;100276.81;1020907;29;1377;-66
2022/02/18 03:50:51;;;;;;;;;;;;;;;14.02;59.87;100275.13;1021520;29;1380;-65
2022/02/18 03:51:42;;;;;;;;;;;;;;;14.03;59.35;100271.47;1020921;29;1489;-66
2022/02/18 03:52:32;;;;;;;;;;;;;;;14.03;59.33;100276.81;1018267;29;1966;-67
2022/02/18 03:53:23;;;;;;;;;;;;;;;14.04;60.24;100264.28;1018229;29;790;-67
2022/02/18 03:54:13;;;;;;;;;;;;;;;14.04;59.39;100262.44;1018086;29;1160;-66
2022/02/18 03:55:04;;;;;;;;;;;;;;;14.03;59.09;100263.41;1019292;29;985;-67
2022/02/18 03:55:54;;;;;;;;;;;;;;;14.03;59.50;100254.53;1015212;29;791;-68
2022/02/18 03:56:45;;;;;;;;;;;;;;;14.02;60.23;100252.84;1015158;29;709;-67
2022/02/18 03:57:35;;;;;;;;;;;;;;;14.02;59.80;100247.47;1018811;29;719;-69
2022/02/18 03:58:25;;;;;;;;;;;;;;;14.02;60.04;100245.66;1015150;29;702;-70
2022/02/18 03:59:16;;;;;;;;;;;;;;;14.02;59.36;100248.34;1015057;29;810;-70
2022/02/18 04:00:07;;;;;;;;;;;;;;;14.03;59.73;100252.69;1018921;29;1809;-71
2022/02/18 04:00:58;;;;;;;;;;;;;;;14.03;59.33;100241.13;1019188;29;1398;-67
2022/02/18 04:01:48;;;;;;;;;;;;;;;14.03;59.32;100244.66;1020058;29;1264;-67
2022/02/18 04:02:39;;;;;;;;;;;;;;;14.03;59.40;100236.63;1021448;29;1376;-68
2022/02/18 04:03:29;;;;;;;;;;;;;;;14.04;60.22;100229.44;1020127;29;1351;-68
2022/02/18 04:04:19;;;;;;;;;;;;;;;14.02;59.63;100229.56;1021518;29;1479;-68
2022/02/18 04:05:10;;;;;;;;;;;;;;;14.02;60.07;100226.91;1021036;29;1670;-67
2022/02/18 04:06:00;;;;;;;;;;;;;;;14.04;59.48;100218.72;1019289;29;1412;-69
2022/02/18 04:06:51;;;;;;;;;;;;;;;14.03;60.13;100217.88;1021568;29;775;-69
2022/02/18 04:07:41;;;;;;;;;;;;;;;14.03;60.08;100217.03;1021100;29;1787;-68
2022/02/18 04:08:31;;;;;;;;;;;;;;;14.03;59.41;100217.88;1020641;29;1515;-69
2022/02/18 04:09:22;;;;;;;;;;;;;;;14.02;59.44;100218.84;1021403;29;1308;-69
2022/02/18 04:10:12;;;;;;;;;;;;;;;14.01;60.06;100209.13;1020193;29;1511;-69
2022/02/18 04:11:03;;;;;;;;;;;;;;;14.02;59.80;100205.47;1019491;29;1489;-69
2022/02/18 04:11:53;;;;;;;;;;;;;;;14.03;59.83;100204.47;1020762;29;1409;-70
2022/02/18 04:12:44;;;;;;;;;;;;;;;14.02;60.15;100193.91;1020192;29;1911;-70
2022/02/18 04:13:34;;;;;;;;;;;;;;;14.02;60.28;100192.06;1021029;29;1503;-69
2022/02/18 04:14:25;;;;;;;;;;;;;;;14.02;59.94;100191.22;1021082;29;1760;-69
2022/02/18 04:15:15;;;;;;;;;;;;;;;14.01;60.30;100178.81;1020279;29;1518;-69
2022/02/18 04:16:06;;;;;;;;;;;;;;;14.00;59.45;100161.88;1022098;29;861;-68
2022/02/18 04:16:56;;;;;;;;;;;;;;;13.99;59.61;100160.19;1022208;29;973;-69
2022/02/18 04:17:46;;;;;;;;;;;;;;;14.00;59.77;100161.03;1019664;29;1887;-68
2022/02/18 04:18:37;;;;;;;;;;;;;;;14.00;60.06;100153.00;1017811;29;722;-70
2022/02/18 04:19:27;;;;;;;;;;;;;;;14.00;60.28;100153.84;1018237;29;686;-68
2022/02/18 04:20:18;;;;;;;;;;;;;;;14.01;60.42;100150.19;1018167;29;780;-68
2022/02/18 04:21:08;;;;;;;;;;;;;;;14.01;59.68;100146.66;1018185;29;696;-68
2022/02/18 04:22:02;;;;;;;;;;;;;;;14.00;59.47;100137.78;1019336;29;847;-68
2022/02/18 04:22:52;;;;;;;;;;;;;;;14.01;59.58;100144.84;1018787;29;752;-68
2022/02/18 04:23:43;;;;;;;;;;;;;;;14.01;60.39;100139.47;1018239;29;757;-68
2022/02/18 04:24:33;;;;;;;;;;;;;;;14.00;60.09;100132.41;1018094;29;780;-68
2022/02/18 04:25:24;;;;;;;;;;;;;;;14.02;59.90;100132.28;1020463;29;1605;-68